UTA7775 USRO-USDD
Flight info
| Callsign | UTA7775 |
|---|---|
| Flight time | 1h 7m |
| Altitude | 34000 |
| Route | BETIL2G BETIL W255 GIMIR G719 ABIMA ABIMA1P |
| Aircraft | B738/M-SDE2E3FGHIRWXY/LB1 |
Departure
| Time | 2026-04-15 10:55 |
|---|---|
| Airport | Noyabrsk Airport (USRO) |
Arrival
| Time | 2026-04-15 12:02 |
|---|---|
| Airport | Salekhard Airport (USDD) |
| Time | Latitude | Longitude | Altitude | Speed | Heading |
|---|---|---|---|---|---|
| 2026-04-15 10:14 | 63.18316 | 75.27308 | 455 ft | 0 kts | 204° |
| 2026-04-15 10:45 | 63.18311 | 75.27301 | 455 ft | 5 kts | 213° |
| 2026-04-15 10:45 | 63.18269 | 75.27251 | 455 ft | 8 kts | 206° |
| 2026-04-15 10:46 | 63.18257 | 75.27240 | 456 ft | 0 kts | 203° |
| 2026-04-15 10:47 | 63.18247 | 75.27230 | 456 ft | 6 kts | 206° |
| 2026-04-15 10:47 | 63.18239 | 75.27221 | 456 ft | 0 kts | 206° |
| 2026-04-15 10:47 | 63.18235 | 75.27216 | 456 ft | 3 kts | 206° |
| 2026-04-15 10:48 | 63.18212 | 75.27191 | 456 ft | 4 kts | 206° |
| 2026-04-15 10:48 | 63.18188 | 75.27166 | 456 ft | 4 kts | 204° |
| 2026-04-15 10:48 | 63.18163 | 75.27143 | 456 ft | 4 kts | 206° |
| 2026-04-15 10:48 | 63.18139 | 75.27117 | 456 ft | 4 kts | 206° |
| 2026-04-15 10:49 | 63.18115 | 75.27092 | 456 ft | 4 kts | 205° |
| 2026-04-15 10:49 | 63.18092 | 75.27068 | 457 ft | 4 kts | 205° |
| 2026-04-15 10:49 | 63.18069 | 75.27043 | 456 ft | 4 kts | 206° |
| 2026-04-15 10:49 | 63.18046 | 75.27019 | 455 ft | 4 kts | 206° |
| 2026-04-15 10:50 | 63.18015 | 75.26992 | 457 ft | 7 kts | 199° |
| 2026-04-15 10:50 | 63.17965 | 75.26946 | 457 ft | 8 kts | 204° |
| 2026-04-15 10:50 | 63.17916 | 75.26895 | 457 ft | 8 kts | 205° |
| 2026-04-15 10:50 | 63.17868 | 75.26845 | 458 ft | 7 kts | 201° |
| 2026-04-15 10:51 | 63.17821 | 75.26802 | 458 ft | 7 kts | 205° |
| 2026-04-15 10:51 | 63.17796 | 75.26716 | 458 ft | 7 kts | 272° |
| 2026-04-15 10:51 | 63.17813 | 75.26612 | 458 ft | 7 kts | 293° |
| 2026-04-15 10:51 | 63.17833 | 75.26513 | 458 ft | 7 kts | 295° |
| 2026-04-15 10:52 | 63.17847 | 75.26410 | 458 ft | 8 kts | 267° |
| 2026-04-15 10:52 | 63.17802 | 75.26292 | 459 ft | 11 kts | 208° |
| 2026-04-15 10:52 | 63.17738 | 75.26223 | 459 ft | 9 kts | 205° |
| 2026-04-15 10:52 | 63.17683 | 75.26166 | 460 ft | 8 kts | 205° |
| 2026-04-15 10:53 | 63.17626 | 75.26107 | 459 ft | 11 kts | 204° |
| 2026-04-15 10:53 | 63.17546 | 75.26038 | 456 ft | 12 kts | 201° |
| 2026-04-15 10:53 | 63.17470 | 75.25978 | 458 ft | 11 kts | 193° |
| 2026-04-15 10:53 | 63.17404 | 75.25966 | 460 ft | 8 kts | 195° |
| 2026-04-15 10:54 | 63.17374 | 75.25870 | 460 ft | 8 kts | 282° |
| 2026-04-15 10:54 | 63.17387 | 75.25867 | 460 ft | 0 kts | 22° |
| 2026-04-15 10:54 | 63.17571 | 75.26051 | 459 ft | 81 kts | 24° |
| 2026-04-15 10:54 | 63.18391 | 75.26885 | 545 ft | 169 kts | 22° |
| 2026-04-15 10:55 | 63.19537 | 75.27994 | 1201 ft | 180 kts | 13° |
| 2026-04-15 10:55 | 63.20800 | 75.28581 | 1448 ft | 196 kts | 5° |
| 2026-04-15 10:55 | 63.22245 | 75.28989 | 1159 ft | 219 kts | 3° |
| 2026-04-15 10:55 | 63.23713 | 75.28873 | 1575 ft | 208 kts | 339° |
| 2026-04-15 10:56 | 63.24781 | 75.26779 | 2108 ft | 215 kts | 297° |
| 2026-04-15 10:56 | 63.25165 | 75.23502 | 2666 ft | 223 kts | 289° |
| 2026-04-15 10:56 | 63.25700 | 75.20288 | 3159 ft | 221 kts | 294° |
| 2026-04-15 10:56 | 63.26218 | 75.17051 | 3666 ft | 224 kts | 292° |
| 2026-04-15 10:57 | 63.26735 | 75.13774 | 4159 ft | 225 kts | 298° |
| 2026-04-15 10:57 | 63.28982 | 75.09278 | 5170 ft | 221 kts | 339° |
| 2026-04-15 10:57 | 63.30422 | 75.08102 | 5677 ft | 221 kts | 340° |
| 2026-04-15 10:58 | 63.31881 | 75.06943 | 6181 ft | 222 kts | 341° |
| 2026-04-15 10:58 | 63.33338 | 75.05785 | 6681 ft | 222 kts | 341° |
| 2026-04-15 10:58 | 63.34792 | 75.04624 | 7154 ft | 222 kts | 341° |
| 2026-04-15 10:58 | 63.36230 | 75.03471 | 7631 ft | 223 kts | 341° |
| 2026-04-15 10:59 | 63.37688 | 75.02297 | 8118 ft | 223 kts | 341° |
| 2026-04-15 10:59 | 63.39153 | 75.01114 | 8606 ft | 225 kts | 341° |
| 2026-04-15 10:59 | 63.40625 | 74.99922 | 9118 ft | 226 kts | 341° |
| 2026-04-15 10:59 | 63.42111 | 74.98716 | 9637 ft | 227 kts | 341° |
| 2026-04-15 11:00 | 63.43603 | 74.97503 | 10150 ft | 229 kts | 341° |
| 2026-04-15 11:00 | 63.45101 | 74.96283 | 10614 ft | 230 kts | 341° |
| 2026-04-15 11:00 | 63.46607 | 74.95055 | 11101 ft | 231 kts | 341° |
| 2026-04-15 11:00 | 63.48122 | 74.93816 | 11573 ft | 232 kts | 341° |
| 2026-04-15 11:01 | 63.49640 | 74.92574 | 12062 ft | 233 kts | 341° |
| 2026-04-15 11:01 | 63.51167 | 74.91324 | 12553 ft | 234 kts | 341° |
| 2026-04-15 11:01 | 63.52782 | 74.90003 | 12769 ft | 261 kts | 341° |
| 2026-04-15 11:01 | 63.54567 | 74.88479 | 13128 ft | 285 kts | 339° |
| 2026-04-15 11:02 | 63.56412 | 74.86657 | 13972 ft | 293 kts | 337° |
| 2026-04-15 11:02 | 63.58267 | 74.84756 | 14967 ft | 292 kts | 337° |
| 2026-04-15 11:02 | 63.60118 | 74.82855 | 15924 ft | 294 kts | 338° |
| 2026-04-15 11:02 | 63.61966 | 74.80967 | 16800 ft | 298 kts | 338° |
| 2026-04-15 11:03 | 63.63854 | 74.79043 | 17255 ft | 298 kts | 338° |
| 2026-04-15 11:03 | 63.65751 | 74.77116 | 17341 ft | 299 kts | 338° |
| 2026-04-15 11:03 | 63.67656 | 74.75182 | 17351 ft | 300 kts | 338° |
| 2026-04-15 11:03 | 63.69557 | 74.73252 | 17357 ft | 300 kts | 338° |
| 2026-04-15 11:04 | 63.71463 | 74.71316 | 17362 ft | 300 kts | 338° |
| 2026-04-15 11:04 | 63.73373 | 74.69374 | 17361 ft | 301 kts | 338° |
| 2026-04-15 11:04 | 63.75279 | 74.67435 | 17358 ft | 301 kts | 338° |
| 2026-04-15 11:04 | 63.77192 | 74.65486 | 17356 ft | 301 kts | 338° |
| 2026-04-15 11:05 | 63.79101 | 74.63537 | 17363 ft | 301 kts | 338° |
| 2026-04-15 11:05 | 63.81005 | 74.61584 | 17365 ft | 301 kts | 337° |
| 2026-04-15 11:05 | 63.82925 | 74.59553 | 17779 ft | 307 kts | 337° |
| 2026-04-15 11:05 | 63.84822 | 74.57514 | 18797 ft | 304 kts | 337° |
| 2026-04-15 11:06 | 63.86731 | 74.55453 | 19692 ft | 304 kts | 337° |
| 2026-04-15 11:06 | 63.88647 | 74.53383 | 20407 ft | 308 kts | 336° |
| 2026-04-15 11:06 | 63.90601 | 74.51271 | 21099 ft | 313 kts | 336° |
| 2026-04-15 11:06 | 63.92577 | 74.49134 | 21818 ft | 316 kts | 336° |
| 2026-04-15 11:07 | 63.94568 | 74.46978 | 22530 ft | 319 kts | 336° |
| 2026-04-15 11:07 | 63.96587 | 74.44789 | 23217 ft | 323 kts | 336° |
| 2026-04-15 11:07 | 63.98628 | 74.42573 | 23884 ft | 327 kts | 336° |
| 2026-04-15 11:07 | 64.00695 | 74.40326 | 24404 ft | 331 kts | 336° |
| 2026-04-15 11:08 | 64.02789 | 74.38046 | 24920 ft | 335 kts | 336° |
| 2026-04-15 11:08 | 64.04904 | 74.35739 | 25417 ft | 340 kts | 336° |
| 2026-04-15 11:08 | 64.06281 | 74.34235 | 25733 ft | 342 kts | 336° |
| 2026-04-15 11:09 | 64.07092 | 74.33348 | 25922 ft | 344 kts | 336° |
| 2026-04-15 11:09 | 64.09253 | 74.30981 | 26507 ft | 345 kts | 336° |
| 2026-04-15 11:09 | 64.11415 | 74.28605 | 27187 ft | 343 kts | 336° |
| 2026-04-15 11:10 | 64.13564 | 74.26234 | 27854 ft | 343 kts | 336° |
| 2026-04-15 11:10 | 64.15687 | 74.23886 | 28480 ft | 342 kts | 336° |
| 2026-04-15 11:10 | 64.17825 | 74.21519 | 29108 ft | 342 kts | 336° |
| 2026-04-15 11:10 | 64.19969 | 74.19143 | 29694 ft | 342 kts | 335° |
| 2026-04-15 11:11 | 64.22117 | 74.16764 | 30279 ft | 343 kts | 335° |
| 2026-04-15 11:11 | 64.24270 | 74.14379 | 30732 ft | 343 kts | 335° |
| 2026-04-15 11:11 | 64.26424 | 74.11988 | 31141 ft | 345 kts | 335° |
| 2026-04-15 11:11 | 64.28593 | 74.09577 | 31532 ft | 347 kts | 335° |
| 2026-04-15 11:12 | 64.30766 | 74.07152 | 31947 ft | 348 kts | 335° |
| 2026-04-15 11:12 | 64.32958 | 74.04705 | 32236 ft | 353 kts | 335° |
| 2026-04-15 11:12 | 64.35206 | 74.02208 | 32305 ft | 364 kts | 335° |
| 2026-04-15 11:12 | 64.37520 | 73.99634 | 32397 ft | 373 kts | 335° |
| 2026-04-15 11:13 | 64.39880 | 73.96995 | 32524 ft | 381 kts | 335° |
| 2026-04-15 11:13 | 64.42286 | 73.94283 | 32754 ft | 386 kts | 335° |
| 2026-04-15 11:13 | 64.44708 | 73.91535 | 33064 ft | 389 kts | 335° |
| 2026-04-15 11:13 | 64.47131 | 73.88770 | 33475 ft | 389 kts | 335° |
| 2026-04-15 11:14 | 64.49560 | 73.85997 | 33880 ft | 389 kts | 335° |
| 2026-04-15 11:14 | 64.51997 | 73.83223 | 34214 ft | 391 kts | 335° |
| 2026-04-15 11:14 | 64.54450 | 73.80439 | 34481 ft | 393 kts | 335° |
| 2026-04-15 11:14 | 64.56911 | 73.77651 | 34737 ft | 395 kts | 335° |
| 2026-04-15 11:15 | 64.59344 | 73.74890 | 35049 ft | 395 kts | 335° |
| 2026-04-15 11:15 | 64.61816 | 73.72074 | 35266 ft | 395 kts | 335° |
| 2026-04-15 11:15 | 64.66732 | 73.66422 | 35273 ft | 394 kts | 335° |
| 2026-04-15 11:16 | 64.71662 | 73.60753 | 35297 ft | 396 kts | 335° |
| 2026-04-15 11:16 | 64.76618 | 73.55097 | 35277 ft | 396 kts | 335° |
| 2026-04-15 11:17 | 64.81550 | 73.49361 | 35270 ft | 395 kts | 334° |
| 2026-04-15 11:17 | 64.86464 | 73.43578 | 35289 ft | 394 kts | 334° |
| 2026-04-15 11:18 | 64.91377 | 73.37840 | 35295 ft | 394 kts | 335° |
| 2026-04-15 11:18 | 64.96297 | 73.32103 | 35293 ft | 395 kts | 335° |
| 2026-04-15 11:19 | 65.01209 | 73.26321 | 35292 ft | 395 kts | 335° |
| 2026-04-15 11:19 | 65.06125 | 73.20504 | 35294 ft | 395 kts | 334° |
| 2026-04-15 11:20 | 65.11002 | 73.14669 | 35293 ft | 395 kts | 334° |
| 2026-04-15 11:20 | 65.15919 | 73.08829 | 35293 ft | 395 kts | 335° |
| 2026-04-15 11:21 | 65.20850 | 73.03011 | 35300 ft | 396 kts | 335° |
| 2026-04-15 11:21 | 65.25774 | 72.97129 | 35299 ft | 396 kts | 334° |
| 2026-04-15 11:22 | 65.30694 | 72.91203 | 35297 ft | 396 kts | 334° |
| 2026-04-15 11:22 | 65.35617 | 72.85244 | 35294 ft | 396 kts | 334° |
| 2026-04-15 11:23 | 65.40532 | 72.79273 | 35300 ft | 396 kts | 334° |
| 2026-04-15 11:23 | 65.45378 | 72.73001 | 35280 ft | 398 kts | 324° |
| 2026-04-15 11:24 | 65.47320 | 72.68224 | 35311 ft | 403 kts | 311° |
| 2026-04-15 11:24 | 65.48791 | 72.62434 | 35296 ft | 410 kts | 298° |
| 2026-04-15 11:24 | 65.50304 | 72.49027 | 35303 ft | 418 kts | 288° |
| 2026-04-15 11:25 | 65.51487 | 72.35298 | 35298 ft | 418 kts | 287° |
| 2026-04-15 11:25 | 65.52687 | 72.21681 | 35307 ft | 417 kts | 288° |
| 2026-04-15 11:26 | 65.53928 | 72.07930 | 35309 ft | 417 kts | 288° |
| 2026-04-15 11:26 | 65.55161 | 71.94244 | 35309 ft | 417 kts | 288° |
| 2026-04-15 11:27 | 65.56381 | 71.80554 | 35315 ft | 417 kts | 288° |
| 2026-04-15 11:27 | 65.57588 | 71.66851 | 35314 ft | 417 kts | 288° |
| 2026-04-15 11:28 | 65.58775 | 71.53205 | 35316 ft | 417 kts | 288° |
| 2026-04-15 11:28 | 65.59959 | 71.39474 | 35327 ft | 418 kts | 287° |
| 2026-04-15 11:29 | 65.61133 | 71.25709 | 35324 ft | 418 kts | 287° |
| 2026-04-15 11:29 | 65.62297 | 71.11914 | 35327 ft | 418 kts | 287° |
| 2026-04-15 11:30 | 65.63444 | 70.98147 | 35323 ft | 417 kts | 287° |
| 2026-04-15 11:30 | 65.64581 | 70.84359 | 35334 ft | 417 kts | 287° |
| 2026-04-15 11:31 | 65.65518 | 70.72896 | 35328 ft | 418 kts | 287° |
| 2026-04-15 11:31 | 65.66829 | 70.59228 | 35326 ft | 412 kts | 295° |
| 2026-04-15 11:32 | 65.67958 | 70.52871 | 35145 ft | 410 kts | 303° |
| 2026-04-15 11:32 | 65.69409 | 70.46937 | 34642 ft | 408 kts | 306° |
| 2026-04-15 11:32 | 65.70908 | 70.41066 | 33959 ft | 408 kts | 307° |
| 2026-04-15 11:32 | 65.72398 | 70.35256 | 33445 ft | 404 kts | 307° |
| 2026-04-15 11:33 | 65.73870 | 70.29484 | 32972 ft | 399 kts | 307° |
| 2026-04-15 11:33 | 65.75313 | 70.23774 | 32532 ft | 393 kts | 307° |
| 2026-04-15 11:33 | 65.76728 | 70.18130 | 32151 ft | 387 kts | 307° |
| 2026-04-15 11:33 | 65.78110 | 70.12584 | 31761 ft | 381 kts | 307° |
| 2026-04-15 11:34 | 65.79472 | 70.07094 | 31333 ft | 376 kts | 307° |
| 2026-04-15 11:34 | 65.80816 | 70.01660 | 30888 ft | 371 kts | 306° |
| 2026-04-15 11:34 | 65.82136 | 69.96302 | 30499 ft | 366 kts | 306° |
| 2026-04-15 11:34 | 65.83441 | 69.90996 | 30024 ft | 362 kts | 307° |
| 2026-04-15 11:35 | 65.84724 | 69.85768 | 29577 ft | 356 kts | 307° |
| 2026-04-15 11:35 | 65.85984 | 69.80619 | 29155 ft | 351 kts | 307° |
| 2026-04-15 11:35 | 65.87225 | 69.75537 | 28743 ft | 345 kts | 307° |
| 2026-04-15 11:35 | 65.88445 | 69.70531 | 28335 ft | 340 kts | 307° |
| 2026-04-15 11:36 | 65.89646 | 69.65597 | 27936 ft | 335 kts | 307° |
| 2026-04-15 11:36 | 65.90829 | 69.60727 | 27532 ft | 331 kts | 307° |
| 2026-04-15 11:36 | 65.91981 | 69.55975 | 27154 ft | 327 kts | 307° |
| 2026-04-15 11:36 | 65.93133 | 69.51212 | 26762 ft | 323 kts | 307° |
| 2026-04-15 11:37 | 65.94268 | 69.46511 | 26380 ft | 319 kts | 308° |
| 2026-04-15 11:37 | 65.95393 | 69.41842 | 25998 ft | 316 kts | 308° |
| 2026-04-15 11:37 | 65.96505 | 69.37216 | 25611 ft | 313 kts | 308° |
| 2026-04-15 11:37 | 65.97606 | 69.32628 | 25237 ft | 311 kts | 308° |
| 2026-04-15 11:38 | 65.98695 | 69.28081 | 24868 ft | 308 kts | 308° |
| 2026-04-15 11:38 | 65.99775 | 69.23560 | 24501 ft | 306 kts | 308° |
| 2026-04-15 11:38 | 66.00845 | 69.19070 | 24132 ft | 303 kts | 308° |
| 2026-04-15 11:38 | 66.01905 | 69.14615 | 23741 ft | 301 kts | 308° |
| 2026-04-15 11:39 | 66.02955 | 69.10190 | 23365 ft | 297 kts | 308° |
| 2026-04-15 11:39 | 66.03988 | 69.05825 | 23012 ft | 293 kts | 308° |
| 2026-04-15 11:39 | 66.05019 | 69.01507 | 22631 ft | 291 kts | 310° |
| 2026-04-15 11:39 | 66.06246 | 68.97625 | 22366 ft | 288 kts | 317° |
| 2026-04-15 11:40 | 66.07586 | 68.93830 | 22099 ft | 298 kts | 317° |
| 2026-04-15 11:40 | 66.08958 | 68.89965 | 21838 ft | 302 kts | 317° |
| 2026-04-15 11:40 | 66.10294 | 68.85961 | 21544 ft | 303 kts | 311° |
| 2026-04-15 11:40 | 66.11349 | 68.81443 | 21138 ft | 304 kts | 306° |
| 2026-04-15 11:41 | 66.12346 | 68.76842 | 20690 ft | 303 kts | 306° |
| 2026-04-15 11:41 | 66.13334 | 68.72267 | 20249 ft | 302 kts | 306° |
| 2026-04-15 11:41 | 66.14243 | 68.67578 | 19828 ft | 303 kts | 301° |
| 2026-04-15 11:41 | 66.15023 | 68.62743 | 19426 ft | 302 kts | 299° |
| 2026-04-15 11:42 | 66.15753 | 68.57966 | 19030 ft | 301 kts | 299° |
| 2026-04-15 11:42 | 66.16495 | 68.53075 | 18622 ft | 299 kts | 299° |
| 2026-04-15 11:42 | 66.17222 | 68.48297 | 18168 ft | 296 kts | 299° |
| 2026-04-15 11:42 | 66.17941 | 68.43601 | 17731 ft | 294 kts | 299° |
| 2026-04-15 11:43 | 66.18665 | 68.38891 | 17290 ft | 292 kts | 299° |
| 2026-04-15 11:43 | 66.19386 | 68.34203 | 16865 ft | 290 kts | 299° |
| 2026-04-15 11:43 | 66.20098 | 68.29571 | 16600 ft | 286 kts | 299° |
| 2026-04-15 11:43 | 66.20800 | 68.24990 | 16328 ft | 284 kts | 299° |
| 2026-04-15 11:44 | 66.21499 | 68.20434 | 16061 ft | 282 kts | 299° |
| 2026-04-15 11:44 | 66.22195 | 68.15907 | 15802 ft | 282 kts | 299° |
| 2026-04-15 11:44 | 66.22896 | 68.11370 | 15514 ft | 282 kts | 299° |
| 2026-04-15 11:44 | 66.23599 | 68.06838 | 15183 ft | 281 kts | 299° |
| 2026-04-15 11:45 | 66.24289 | 68.02361 | 14991 ft | 272 kts | 298° |
| 2026-04-15 11:45 | 66.24939 | 67.98053 | 14861 ft | 263 kts | 299° |
| 2026-04-15 11:45 | 66.25571 | 67.93856 | 14650 ft | 257 kts | 299° |
| 2026-04-15 11:45 | 66.26191 | 67.89745 | 14447 ft | 253 kts | 299° |
| 2026-04-15 11:46 | 66.26807 | 67.85667 | 14249 ft | 251 kts | 299° |
| 2026-04-15 11:46 | 66.27422 | 67.81606 | 14036 ft | 251 kts | 299° |
| 2026-04-15 11:46 | 66.28036 | 67.77539 | 13814 ft | 251 kts | 299° |
| 2026-04-15 11:46 | 66.28649 | 67.73471 | 13572 ft | 251 kts | 298° |
| 2026-04-15 11:47 | 66.29259 | 67.69408 | 13310 ft | 251 kts | 298° |
| 2026-04-15 11:47 | 66.29869 | 67.65335 | 13079 ft | 252 kts | 298° |
| 2026-04-15 11:47 | 66.30490 | 67.61268 | 12860 ft | 252 kts | 298° |
| 2026-04-15 11:47 | 66.31125 | 67.57208 | 12643 ft | 252 kts | 299° |
| 2026-04-15 11:48 | 66.31766 | 67.53145 | 12281 ft | 256 kts | 299° |
| 2026-04-15 11:48 | 66.32505 | 67.49046 | 11676 ft | 259 kts | 310° |
| 2026-04-15 11:48 | 66.33857 | 67.46264 | 11111 ft | 254 kts | 333° |
| 2026-04-15 11:48 | 66.35221 | 67.43406 | 10528 ft | 268 kts | 307° |
| 2026-04-15 11:49 | 66.35836 | 67.38979 | 9992 ft | 280 kts | 289° |
| 2026-04-15 11:49 | 66.36260 | 67.34207 | 9376 ft | 283 kts | 289° |
| 2026-04-15 11:49 | 66.36729 | 67.29429 | 8775 ft | 286 kts | 290° |
| 2026-04-15 11:49 | 66.37251 | 67.24624 | 8167 ft | 287 kts | 291° |
| 2026-04-15 11:50 | 66.37808 | 67.19863 | 7579 ft | 283 kts | 291° |
| 2026-04-15 11:50 | 66.38376 | 67.15223 | 7005 ft | 276 kts | 291° |
| 2026-04-15 11:50 | 66.38947 | 67.10713 | 6547 ft | 267 kts | 292° |
| 2026-04-15 11:50 | 66.39498 | 67.06422 | 6252 ft | 253 kts | 292° |
| 2026-04-15 11:51 | 66.40029 | 67.02339 | 5968 ft | 242 kts | 292° |
| 2026-04-15 11:51 | 66.40542 | 66.98430 | 5692 ft | 233 kts | 292° |
| 2026-04-15 11:51 | 66.41046 | 66.94603 | 5420 ft | 231 kts | 292° |
| 2026-04-15 11:51 | 66.41530 | 66.90920 | 5280 ft | 213 kts | 293° |
| 2026-04-15 11:52 | 66.41970 | 66.87564 | 5112 ft | 195 kts | 293° |
| 2026-04-15 11:52 | 66.42375 | 66.84471 | 4953 ft | 180 kts | 294° |
| 2026-04-15 11:52 | 66.42755 | 66.81584 | 4696 ft | 172 kts | 294° |
| 2026-04-15 11:52 | 66.43130 | 66.78752 | 4419 ft | 171 kts | 294° |
| 2026-04-15 11:53 | 66.43493 | 66.75994 | 4176 ft | 167 kts | 295° |
| 2026-04-15 11:53 | 66.43850 | 66.73279 | 3907 ft | 162 kts | 295° |
| 2026-04-15 11:53 | 66.44195 | 66.70653 | 3655 ft | 156 kts | 295° |
| 2026-04-15 11:53 | 66.44528 | 66.68110 | 3373 ft | 152 kts | 295° |
| 2026-04-15 11:54 | 66.44855 | 66.65616 | 3088 ft | 149 kts | 295° |
| 2026-04-15 11:54 | 66.45173 | 66.63182 | 2807 ft | 146 kts | 295° |
| 2026-04-15 11:54 | 66.45486 | 66.60791 | 2567 ft | 140 kts | 294° |
| 2026-04-15 11:54 | 66.45780 | 66.58528 | 2595 ft | 138 kts | 294° |
| 2026-04-15 11:55 | 66.46080 | 66.56233 | 2612 ft | 139 kts | 295° |
| 2026-04-15 11:55 | 66.46380 | 66.53928 | 2564 ft | 141 kts | 292° |
| 2026-04-15 11:55 | 66.46690 | 66.51548 | 2270 ft | 144 kts | 291° |
| 2026-04-15 11:55 | 66.46996 | 66.49196 | 2130 ft | 142 kts | 291° |
| 2026-04-15 11:56 | 66.47300 | 66.46845 | 2094 ft | 141 kts | 291° |
| 2026-04-15 11:56 | 66.47597 | 66.44538 | 2080 ft | 138 kts | 291° |
| 2026-04-15 11:56 | 66.47893 | 66.42238 | 2082 ft | 139 kts | 291° |
| 2026-04-15 11:56 | 66.48190 | 66.39928 | 2096 ft | 140 kts | 291° |
| 2026-04-15 11:57 | 66.48489 | 66.37599 | 2100 ft | 141 kts | 291° |
| 2026-04-15 11:57 | 66.49080 | 66.33009 | 2098 ft | 140 kts | 293° |
| 2026-04-15 11:57 | 66.49637 | 66.31115 | 2113 ft | 134 kts | 321° |
| 2026-04-15 11:58 | 66.50464 | 66.30036 | 2113 ft | 135 kts | 346° |
| 2026-04-15 11:58 | 66.51412 | 66.30048 | 2098 ft | 139 kts | 12° |
| 2026-04-15 11:58 | 66.52267 | 66.31222 | 2082 ft | 144 kts | 38° |
| 2026-04-15 11:58 | 66.52865 | 66.33271 | 2126 ft | 145 kts | 53° |
| 2026-04-15 11:59 | 66.53391 | 66.35440 | 2103 ft | 144 kts | 52° |
| 2026-04-15 11:59 | 66.53918 | 66.37595 | 2079 ft | 147 kts | 54° |
| 2026-04-15 11:59 | 66.54434 | 66.39778 | 2042 ft | 142 kts | 53° |
| 2026-04-15 11:59 | 66.54923 | 66.41857 | 1829 ft | 133 kts | 55° |
| 2026-04-15 12:00 | 66.55354 | 66.43821 | 1640 ft | 127 kts | 56° |
| 2026-04-15 12:00 | 66.55770 | 66.45755 | 1456 ft | 122 kts | 56° |
| 2026-04-15 12:00 | 66.56160 | 66.47572 | 1272 ft | 119 kts | 56° |
| 2026-04-15 12:00 | 66.56559 | 66.49429 | 1093 ft | 122 kts | 57° |
| 2026-04-15 12:01 | 66.56963 | 66.51316 | 911 ft | 123 kts | 57° |
| 2026-04-15 12:01 | 66.57370 | 66.53216 | 713 ft | 123 kts | 57° |
| 2026-04-15 12:01 | 66.57776 | 66.55097 | 550 ft | 123 kts | 57° |
| 2026-04-15 12:01 | 66.58186 | 66.56974 | 406 ft | 123 kts | 58° |
| 2026-04-15 12:02 | 66.58585 | 66.58839 | 252 ft | 114 kts | 54° |
| 2026-04-15 12:02 | 66.58915 | 66.60341 | 225 ft | 53 kts | 57° |
| 2026-04-15 12:02 | 66.59007 | 66.60561 | 223 ft | 0 kts | 325° |
| 2026-04-15 12:03 | 66.59025 | 66.60531 | 223 ft | 14 kts | 330° |
| 2026-04-15 12:04 | 66.59096 | 66.60393 | 224 ft | 6 kts | 281° |
| 2026-04-15 12:04 | 66.59071 | 66.60214 | 225 ft | 17 kts | 239° |
| 2026-04-15 12:04 | 66.59017 | 66.59964 | 227 ft | 16 kts | 242° |
| 2026-04-15 12:04 | 66.58966 | 66.59721 | 229 ft | 15 kts | 243° |
| 2026-04-15 12:05 | 66.58946 | 66.59577 | 230 ft | 4 kts | 278° |
| 2026-04-15 12:05 | 66.58958 | 66.59511 | 232 ft | 7 kts | 297° |
| 2026-04-15 12:05 | 66.58961 | 66.59431 | 231 ft | 5 kts | 253° |
| 2026-04-15 12:05 | 66.58953 | 66.59398 | 233 ft | 1 kts | 242° |
| 2026-04-15 12:06 | 66.58944 | 66.59367 | 232 ft | 0 kts | 233° |